sensor_id;sensor_type;location;lat;lon;timestamp;P1;durP1;ratioP1;P2;durP2;ratioP2
11141;SDS011;5625;50.122;19.864;2022-10-31T00:00:57;23.43;;;16.47;;
11141;SDS011;5625;50.122;19.864;2022-10-31T00:03:26;21.13;;;16.47;;
11141;SDS011;5625;50.122;19.864;2022-10-31T00:05:55;20.40;;;15.90;;
11141;SDS011;5625;50.122;19.864;2022-10-31T00:08:23;20.83;;;15.40;;
11141;SDS011;5625;50.122;19.864;2022-10-31T00:10:51;16.97;;;14.40;;
11141;SDS011;5625;50.122;19.864;2022-10-31T00:13:19;18.07;;;15.50;;
11141;SDS011;5625;50.122;19.864;2022-10-31T00:15:49;19.00;;;14.53;;
11141;SDS011;5625;50.122;19.864;2022-10-31T00:18:17;21.97;;;15.93;;
11141;SDS011;5625;50.122;19.864;2022-10-31T00:20:45;21.80;;;16.30;;
11141;SDS011;5625;50.122;19.864;2022-10-31T00:23:15;20.37;;;16.53;;
11141;SDS011;5625;50.122;19.864;2022-10-31T00:25:43;19.00;;;15.80;;
11141;SDS011;5625;50.122;19.864;2022-10-31T00:28:13;21.00;;;16.53;;
11141;SDS011;5625;50.122;19.864;2022-10-31T00:30:41;20.70;;;16.63;;
11141;SDS011;5625;50.122;19.864;2022-10-31T00:33:09;20.43;;;16.97;;
11141;SDS011;5625;50.122;19.864;2022-10-31T00:35:37;25.00;;;18.13;;
11141;SDS011;5625;50.122;19.864;2022-10-31T00:38:05;22.90;;;18.70;;
11141;SDS011;5625;50.122;19.864;2022-10-31T00:40:37;26.63;;;20.03;;
11141;SDS011;5625;50.122;19.864;2022-10-31T00:43:05;25.57;;;20.03;;
11141;SDS011;5625;50.122;19.864;2022-10-31T00:45:33;22.27;;;17.63;;
11141;SDS011;5625;50.122;19.864;2022-10-31T00:48:01;21.63;;;18.13;;
11141;SDS011;5625;50.122;19.864;2022-10-31T00:50:29;24.50;;;19.33;;
11141;SDS011;5625;50.122;19.864;2022-10-31T00:52:57;27.20;;;20.50;;
11141;SDS011;5625;50.122;19.864;2022-10-31T00:55:25;26.50;;;19.10;;
11141;SDS011;5625;50.122;19.864;2022-10-31T00:57:55;23.13;;;19.23;;
11141;SDS011;5625;50.122;19.864;2022-10-31T01:00:23;24.57;;;19.07;;
11141;SDS011;5625;50.122;19.864;2022-10-31T01:03:10;25.60;;;19.80;;
11141;SDS011;5625;50.122;19.864;2022-10-31T01:05:38;23.23;;;18.67;;
11141;SDS011;5625;50.122;19.864;2022-10-31T01:08:06;22.07;;;18.53;;
11141;SDS011;5625;50.122;19.864;2022-10-31T01:10:34;27.37;;;20.60;;
11141;SDS011;5625;50.122;19.864;2022-10-31T01:13:04;23.07;;;19.20;;
11141;SDS011;5625;50.122;19.864;2022-10-31T01:15:32;25.67;;;20.00;;
11141;SDS011;5625;50.122;19.864;2022-10-31T01:18:00;27.40;;;19.13;;
11141;SDS011;5625;50.122;19.864;2022-10-31T01:20:28;28.10;;;20.17;;
11141;SDS011;5625;50.122;19.864;2022-10-31T01:22:56;25.33;;;19.30;;
11141;SDS011;5625;50.122;19.864;2022-10-31T01:25:24;25.23;;;19.03;;
11141;SDS011;5625;50.122;19.864;2022-10-31T01:27:52;28.37;;;20.10;;
11141;SDS011;5625;50.122;19.864;2022-10-31T01:30:22;25.23;;;18.70;;
11141;SDS011;5625;50.122;19.864;2022-10-31T01:32:50;23.93;;;18.07;;
11141;SDS011;5625;50.122;19.864;2022-10-31T01:35:18;23.93;;;17.77;;
11141;SDS011;5625;50.122;19.864;2022-10-31T01:37:46;20.00;;;17.07;;
11141;SDS011;5625;50.122;19.864;2022-10-31T01:40:14;21.17;;;17.13;;
11141;SDS011;5625;50.122;19.864;2022-10-31T01:42:42;23.17;;;16.17;;
11141;SDS011;5625;50.122;19.864;2022-10-31T01:45:10;22.73;;;17.47;;
11141;SDS011;5625;50.122;19.864;2022-10-31T01:47:48;23.07;;;17.83;;
11141;SDS011;5625;50.122;19.864;2022-10-31T01:50:21;27.80;;;19.07;;
11141;SDS011;5625;50.122;19.864;2022-10-31T01:52:54;23.77;;;18.37;;
11141;SDS011;5625;50.122;19.864;2022-10-31T01:55:24;22.63;;;18.87;;
11141;SDS011;5625;50.122;19.864;2022-10-31T01:57:57;25.83;;;18.23;;
11141;SDS011;5625;50.122;19.864;2022-10-31T02:00:29;24.87;;;19.87;;
11141;SDS011;5625;50.122;19.864;2022-10-31T02:02:59;22.67;;;19.57;;
11141;SDS011;5625;50.122;19.864;2022-10-31T02:05:28;23.07;;;18.77;;
11141;SDS011;5625;50.122;19.864;2022-10-31T02:07:58;21.87;;;17.57;;
11141;SDS011;5625;50.122;19.864;2022-10-31T02:10:30;23.53;;;18.17;;
11141;SDS011;5625;50.122;19.864;2022-10-31T02:13:01;21.07;;;18.07;;
11141;SDS011;5625;50.122;19.864;2022-10-31T02:15:31;21.47;;;16.27;;
11141;SDS011;5625;50.122;19.864;2022-10-31T02:18:01;21.93;;;16.47;;
11141;SDS011;5625;50.122;19.864;2022-10-31T02:20:32;21.70;;;16.30;;
11141;SDS011;5625;50.122;19.864;2022-10-31T02:26:26;24.17;;;17.43;;
11141;SDS011;5625;50.122;19.864;2022-10-31T02:29:16;26.90;;;18.30;;
11141;SDS011;5625;50.122;19.864;2022-10-31T02:32:17;24.10;;;17.53;;
11141;SDS011;5625;50.122;19.864;2022-10-31T02:34:55;22.80;;;16.93;;
11141;SDS011;5625;50.122;19.864;2022-10-31T02:37:29;23.40;;;17.07;;
11141;SDS011;5625;50.122;19.864;2022-10-31T02:40:05;20.40;;;17.83;;
11141;SDS011;5625;50.122;19.864;2022-10-31T02:42:41;18.93;;;15.80;;
11141;SDS011;5625;50.122;19.864;2022-10-31T02:45:19;22.93;;;16.60;;
11141;SDS011;5625;50.122;19.864;2022-10-31T02:47:52;22.50;;;17.47;;
11141;SDS011;5625;50.122;19.864;2022-10-31T02:50:23;21.83;;;17.37;;
11141;SDS011;5625;50.122;19.864;2022-10-31T02:52:56;22.33;;;16.20;;
11141;SDS011;5625;50.122;19.864;2022-10-31T02:55:44;19.30;;;15.30;;
11141;SDS011;5625;50.122;19.864;2022-10-31T02:58:18;19.40;;;16.40;;
11141;SDS011;5625;50.122;19.864;2022-10-31T03:00:54;19.67;;;15.67;;
11141;SDS011;5625;50.122;19.864;2022-10-31T03:03:38;20.77;;;16.73;;
11141;SDS011;5625;50.122;19.864;2022-10-31T03:06:14;22.70;;;16.50;;
11141;SDS011;5625;50.122;19.864;2022-10-31T03:08:49;18.80;;;15.10;;
11141;SDS011;5625;50.122;19.864;2022-10-31T03:11:23;24.03;;;17.27;;
11141;SDS011;5625;50.122;19.864;2022-10-31T03:14:00;21.00;;;17.37;;
11141;SDS011;5625;50.122;19.864;2022-10-31T03:16:36;20.07;;;15.63;;
11141;SDS011;5625;50.122;19.864;2022-10-31T03:19:13;20.83;;;16.47;;
11141;SDS011;5625;50.122;19.864;2022-10-31T03:21:46;21.37;;;16.33;;
11141;SDS011;5625;50.122;19.864;2022-10-31T03:24:17;23.27;;;17.83;;
11141;SDS011;5625;50.122;19.864;2022-10-31T03:26:49;19.60;;;16.00;;
11141;SDS011;5625;50.122;19.864;2022-10-31T03:29:21;19.50;;;15.63;;
11141;SDS011;5625;50.122;19.864;2022-10-31T03:31:54;20.80;;;16.73;;
11141;SDS011;5625;50.122;19.864;2022-10-31T03:34:27;21.77;;;16.27;;
11141;SDS011;5625;50.122;19.864;2022-10-31T03:36:59;24.07;;;17.43;;
11141;SDS011;5625;50.122;19.864;2022-10-31T03:39:31;25.37;;;17.40;;
11141;SDS011;5625;50.122;19.864;2022-10-31T03:42:02;22.73;;;17.83;;
11141;SDS011;5625;50.122;19.864;2022-10-31T03:44:33;24.47;;;17.27;;
11141;SDS011;5625;50.122;19.864;2022-10-31T03:47:02;23.43;;;17.10;;
11141;SDS011;5625;50.122;19.864;2022-10-31T03:49:33;20.23;;;16.97;;
11141;SDS011;5625;50.122;19.864;2022-10-31T03:52:02;23.83;;;17.23;;
11141;SDS011;5625;50.122;19.864;2022-10-31T03:54:38;23.30;;;17.00;;
11141;SDS011;5625;50.122;19.864;2022-10-31T03:57:11;21.47;;;17.50;;
11141;SDS011;5625;50.122;19.864;2022-10-31T03:59:47;21.83;;;17.40;;
11141;SDS011;5625;50.122;19.864;2022-10-31T04:02:21;20.20;;;16.90;;
11141;SDS011;5625;50.122;19.864;2022-10-31T04:04:54;20.93;;;16.27;;
11141;SDS011;5625;50.122;19.864;2022-10-31T04:07:23;24.37;;;16.43;;
11141;SDS011;5625;50.122;19.864;2022-10-31T04:09:55;23.03;;;15.87;;
11141;SDS011;5625;50.122;19.864;2022-10-31T04:12:25;23.37;;;16.10;;
11141;SDS011;5625;50.122;19.864;2022-10-31T04:14:55;18.70;;;15.17;;
11141;SDS011;5625;50.122;19.864;2022-10-31T04:17:25;23.27;;;15.80;;
11141;SDS011;5625;50.122;19.864;2022-10-31T04:19:59;19.60;;;14.13;;
11141;SDS011;5625;50.122;19.864;2022-10-31T04:22:28;19.43;;;15.23;;
11141;SDS011;5625;50.122;19.864;2022-10-31T04:24:56;19.77;;;14.83;;
11141;SDS011;5625;50.122;19.864;2022-10-31T04:27:24;21.80;;;15.60;;
11141;SDS011;5625;50.122;19.864;2022-10-31T04:29:52;20.30;;;14.97;;
11141;SDS011;5625;50.122;19.864;2022-10-31T04:32:20;21.70;;;15.30;;
11141;SDS011;5625;50.122;19.864;2022-10-31T04:34:48;19.63;;;15.20;;
11141;SDS011;5625;50.122;19.864;2022-10-31T04:37:17;18.70;;;15.90;;
11141;SDS011;5625;50.122;19.864;2022-10-31T04:39:46;22.23;;;16.40;;
11141;SDS011;5625;50.122;19.864;2022-10-31T04:42:14;20.17;;;15.80;;
11141;SDS011;5625;50.122;19.864;2022-10-31T04:44:42;20.87;;;16.23;;
11141;SDS011;5625;50.122;19.864;2022-10-31T04:47:10;21.53;;;16.23;;
11141;SDS011;5625;50.122;19.864;2022-10-31T04:49:38;20.20;;;15.83;;
11141;SDS011;5625;50.122;19.864;2022-10-31T04:52:06;20.70;;;15.60;;
11141;SDS011;5625;50.122;19.864;2022-10-31T04:54:36;20.10;;;15.67;;
11141;SDS011;5625;50.122;19.864;2022-10-31T04:57:04;19.80;;;15.43;;
11141;SDS011;5625;50.122;19.864;2022-10-31T04:59:34;19.70;;;15.13;;
11141;SDS011;5625;50.122;19.864;2022-10-31T05:02:02;19.73;;;16.17;;
11141;SDS011;5625;50.122;19.864;2022-10-31T05:04:30;21.87;;;16.47;;
11141;SDS011;5625;50.122;19.864;2022-10-31T05:06:58;20.10;;;15.90;;
11141;SDS011;5625;50.122;19.864;2022-10-31T05:09:26;20.23;;;16.97;;
11141;SDS011;5625;50.122;19.864;2022-10-31T05:11:55;24.33;;;17.27;;
11141;SDS011;5625;50.122;19.864;2022-10-31T05:14:23;21.03;;;16.93;;
11141;SDS011;5625;50.122;19.864;2022-10-31T05:16:51;22.57;;;17.20;;
11141;SDS011;5625;50.122;19.864;2022-10-31T05:19:19;25.53;;;17.27;;
11141;SDS011;5625;50.122;19.864;2022-10-31T05:21:47;22.93;;;17.63;;
11141;SDS011;5625;50.122;19.864;2022-10-31T05:24:15;21.00;;;17.27;;
11141;SDS011;5625;50.122;19.864;2022-10-31T05:26:43;22.87;;;16.93;;
11141;SDS011;5625;50.122;19.864;2022-10-31T05:29:13;21.43;;;17.37;;
11141;SDS011;5625;50.122;19.864;2022-10-31T05:31:41;25.30;;;18.33;;
11141;SDS011;5625;50.122;19.864;2022-10-31T05:34:09;20.50;;;17.73;;
11141;SDS011;5625;50.122;19.864;2022-10-31T05:36:37;24.90;;;18.70;;
11141;SDS011;5625;50.122;19.864;2022-10-31T05:39:05;23.60;;;18.17;;
11141;SDS011;5625;50.122;19.864;2022-10-31T05:41:33;26.20;;;17.17;;
11141;SDS011;5625;50.122;19.864;2022-10-31T05:44:01;26.23;;;18.30;;
11141;SDS011;5625;50.122;19.864;2022-10-31T05:46:30;24.37;;;18.40;;
11141;SDS011;5625;50.122;19.864;2022-10-31T05:48:59;24.00;;;18.00;;
11141;SDS011;5625;50.122;19.864;2022-10-31T05:51:28;27.07;;;19.73;;
11141;SDS011;5625;50.122;19.864;2022-10-31T05:53:56;26.50;;;18.57;;
11141;SDS011;5625;50.122;19.864;2022-10-31T05:56:24;24.33;;;17.67;;
11141;SDS011;5625;50.122;19.864;2022-10-31T05:58:52;26.53;;;20.17;;
11141;SDS011;5625;50.122;19.864;2022-10-31T06:01:20;24.87;;;19.63;;
11141;SDS011;5625;50.122;19.864;2022-10-31T06:03:49;25.00;;;19.67;;
11141;SDS011;5625;50.122;19.864;2022-10-31T06:06:17;25.27;;;19.40;;
11141;SDS011;5625;50.122;19.864;2022-10-31T06:08:45;28.33;;;19.47;;
11141;SDS011;5625;50.122;19.864;2022-10-31T06:11:13;24.13;;;18.50;;
11141;SDS011;5625;50.122;19.864;2022-10-31T06:13:42;24.97;;;18.13;;
11141;SDS011;5625;50.122;19.864;2022-10-31T06:16:10;23.43;;;16.80;;
11141;SDS011;5625;50.122;19.864;2022-10-31T06:18:37;23.47;;;17.23;;
11141;SDS011;5625;50.122;19.864;2022-10-31T06:21:07;21.47;;;17.30;;
11141;SDS011;5625;50.122;19.864;2022-10-31T06:23:40;27.10;;;16.80;;
11141;SDS011;5625;50.122;19.864;2022-10-31T06:26:08;22.30;;;17.43;;
11141;SDS011;5625;50.122;19.864;2022-10-31T06:28:36;21.93;;;16.83;;
11141;SDS011;5625;50.122;19.864;2022-10-31T06:31:04;23.20;;;17.47;;
11141;SDS011;5625;50.122;19.864;2022-10-31T06:33:32;21.83;;;16.20;;
11141;SDS011;5625;50.122;19.864;2022-10-31T06:36:00;19.83;;;16.50;;
11141;SDS011;5625;50.122;19.864;2022-10-31T06:38:30;24.83;;;17.37;;
11141;SDS011;5625;50.122;19.864;2022-10-31T06:41:01;24.43;;;17.50;;
11141;SDS011;5625;50.122;19.864;2022-10-31T06:43:30;23.23;;;18.20;;
11141;SDS011;5625;50.122;19.864;2022-10-31T06:46:01;22.80;;;17.47;;
11141;SDS011;5625;50.122;19.864;2022-10-31T06:48:30;24.37;;;18.27;;
11141;SDS011;5625;50.122;19.864;2022-10-31T06:50:58;20.70;;;17.50;;
11141;SDS011;5625;50.122;19.864;2022-10-31T06:53:27;23.47;;;18.13;;
11141;SDS011;5625;50.122;19.864;2022-10-31T06:55:57;22.87;;;17.30;;
11141;SDS011;5625;50.122;19.864;2022-10-31T06:58:25;21.53;;;17.37;;
11141;SDS011;5625;50.122;19.864;2022-10-31T07:00:53;21.37;;;16.17;;
11141;SDS011;5625;50.122;19.864;2022-10-31T07:03:21;21.83;;;16.43;;
11141;SDS011;5625;50.122;19.864;2022-10-31T07:05:50;23.00;;;16.37;;
11141;SDS011;5625;50.122;19.864;2022-10-31T07:08:18;20.37;;;16.83;;
11141;SDS011;5625;50.122;19.864;2022-10-31T07:10:50;22.40;;;15.97;;
11141;SDS011;5625;50.122;19.864;2022-10-31T07:13:20;20.43;;;15.60;;
11141;SDS011;5625;50.122;19.864;2022-10-31T07:15:51;19.83;;;14.57;;
11141;SDS011;5625;50.122;19.864;2022-10-31T07:18:20;18.37;;;13.47;;
11141;SDS011;5625;50.122;19.864;2022-10-31T07:20:48;19.47;;;14.37;;
11141;SDS011;5625;50.122;19.864;2022-10-31T07:23:16;18.77;;;13.73;;
11141;SDS011;5625;50.122;19.864;2022-10-31T07:25:44;19.07;;;13.73;;
11141;SDS011;5625;50.122;19.864;2022-10-31T07:28:12;18.33;;;12.77;;
11141;SDS011;5625;50.122;19.864;2022-10-31T07:30:42;16.20;;;13.13;;
11141;SDS011;5625;50.122;19.864;2022-10-31T07:33:10;16.37;;;12.63;;
11141;SDS011;5625;50.122;19.864;2022-10-31T07:35:38;17.10;;;12.37;;
11141;SDS011;5625;50.122;19.864;2022-10-31T07:38:06;15.87;;;11.63;;
11141;SDS011;5625;50.122;19.864;2022-10-31T07:40:35;16.00;;;12.27;;
11141;SDS011;5625;50.122;19.864;2022-10-31T07:43:04;17.67;;;12.40;;
11141;SDS011;5625;50.122;19.864;2022-10-31T07:45:38;14.03;;;11.47;;
11141;SDS011;5625;50.122;19.864;2022-10-31T07:48:07;15.07;;;10.03;;
11141;SDS011;5625;50.122;19.864;2022-10-31T07:50:35;15.00;;;11.13;;
11141;SDS011;5625;50.122;19.864;2022-10-31T07:53:04;12.83;;;10.93;;
11141;SDS011;5625;50.122;19.864;2022-10-31T07:55:36;15.03;;;10.27;;
11141;SDS011;5625;50.122;19.864;2022-10-31T07:58:05;15.80;;;11.10;;
11141;SDS011;5625;50.122;19.864;2022-10-31T08:00:34;12.87;;;9.70;;
11141;SDS011;5625;50.122;19.864;2022-10-31T08:03:04;18.50;;;10.10;;
11141;SDS011;5625;50.122;19.864;2022-10-31T08:05:35;13.23;;;9.20;;
11141;SDS011;5625;50.122;19.864;2022-10-31T08:08:04;13.10;;;8.20;;
11141;SDS011;5625;50.122;19.864;2022-10-31T08:10:33;12.13;;;8.47;;
11141;SDS011;5625;50.122;19.864;2022-10-31T08:13:03;13.47;;;8.70;;
11141;SDS011;5625;50.122;19.864;2022-10-31T08:15:33;9.90;;;7.80;;
11141;SDS011;5625;50.122;19.864;2022-10-31T08:18:04;12.47;;;7.83;;
11141;SDS011;5625;50.122;19.864;2022-10-31T08:20:32;9.97;;;7.33;;
11141;SDS011;5625;50.122;19.864;2022-10-31T08:23:02;8.43;;;7.07;;
11141;SDS011;5625;50.122;19.864;2022-10-31T08:25:34;16.37;;;7.40;;
11141;SDS011;5625;50.122;19.864;2022-10-31T08:28:04;10.97;;;6.70;;
11141;SDS011;5625;50.122;19.864;2022-10-31T08:30:34;13.47;;;6.80;;
11141;SDS011;5625;50.122;19.864;2022-10-31T08:33:03;10.97;;;7.10;;
11141;SDS011;5625;50.122;19.864;2022-10-31T08:35:33;10.90;;;6.87;;
11141;SDS011;5625;50.122;19.864;2022-10-31T08:38:02;10.67;;;6.73;;
11141;SDS011;5625;50.122;19.864;2022-10-31T08:40:32;10.63;;;6.40;;
11141;SDS011;5625;50.122;19.864;2022-10-31T08:43:01;11.77;;;6.40;;
11141;SDS011;5625;50.122;19.864;2022-10-31T08:45:31;12.90;;;6.73;;
11141;SDS011;5625;50.122;19.864;2022-10-31T08:48:02;8.30;;;5.33;;
11141;SDS011;5625;50.122;19.864;2022-10-31T08:50:34;9.03;;;5.60;;
11141;SDS011;5625;50.122;19.864;2022-10-31T08:53:06;8.80;;;5.60;;
11141;SDS011;5625;50.122;19.864;2022-10-31T08:55:36;10.40;;;5.23;;
11141;SDS011;5625;50.122;19.864;2022-10-31T08:58:06;9.93;;;5.53;;
11141;SDS011;5625;50.122;19.864;2022-10-31T09:00:36;9.50;;;5.67;;
11141;SDS011;5625;50.122;19.864;2022-10-31T09:03:12;10.20;;;5.40;;
11141;SDS011;5625;50.122;19.864;2022-10-31T09:05:41;11.57;;;5.60;;
11141;SDS011;5625;50.122;19.864;2022-10-31T09:08:10;10.80;;;4.93;;
11141;SDS011;5625;50.122;19.864;2022-10-31T09:10:42;7.90;;;5.03;;
11141;SDS011;5625;50.122;19.864;2022-10-31T09:13:14;11.17;;;5.67;;
11141;SDS011;5625;50.122;19.864;2022-10-31T09:15:45;7.83;;;5.30;;
11141;SDS011;5625;50.122;19.864;2022-10-31T09:18:16;11.80;;;5.57;;
11141;SDS011;5625;50.122;19.864;2022-10-31T09:20:46;10.63;;;5.30;;
11141;SDS011;5625;50.122;19.864;2022-10-31T09:23:18;9.97;;;4.90;;
11141;SDS011;5625;50.122;19.864;2022-10-31T09:25:47;7.40;;;5.13;;
11141;SDS011;5625;50.122;19.864;2022-10-31T09:28:18;11.00;;;5.20;;
11141;SDS011;5625;50.122;19.864;2022-10-31T09:30:48;8.23;;;4.83;;
11141;SDS011;5625;50.122;19.864;2022-10-31T09:33:18;10.67;;;5.10;;
11141;SDS011;5625;50.122;19.864;2022-10-31T09:35:46;9.18;;;4.45;;
11141;SDS011;5625;50.122;19.864;2022-10-31T09:38:15;12.38;;;5.60;;
11141;SDS011;5625;50.122;19.864;2022-10-31T09:40:46;7.70;;;4.43;;
11141;SDS011;5625;50.122;19.864;2022-10-31T09:43:19;9.57;;;5.05;;
11141;SDS011;5625;50.122;19.864;2022-10-31T09:45:56;10.52;;;4.22;;
11141;SDS011;5625;50.122;19.864;2022-10-31T09:48:33;8.60;;;4.18;;
11141;SDS011;5625;50.122;19.864;2022-10-31T09:51:17;6.07;;;4.03;;
11141;SDS011;5625;50.122;19.864;2022-10-31T09:53:50;9.52;;;4.13;;
11141;SDS011;5625;50.122;19.864;2022-10-31T09:56:22;10.43;;;3.92;;
11141;SDS011;5625;50.122;19.864;2022-10-31T09:58:53;7.90;;;3.70;;
11141;SDS011;5625;50.122;19.864;2022-10-31T10:01:32;10.77;;;4.38;;
11141;SDS011;5625;50.122;19.864;2022-10-31T10:04:15;8.43;;;4.47;;
11141;SDS011;5625;50.122;19.864;2022-10-31T10:06:55;9.18;;;4.45;;
11141;SDS011;5625;50.122;19.864;2022-10-31T10:09:28;8.93;;;4.70;;
11141;SDS011;5625;50.122;19.864;2022-10-31T10:11:59;8.65;;;4.35;;
11141;SDS011;5625;50.122;19.864;2022-10-31T10:14:45;9.95;;;4.53;;
11141;SDS011;5625;50.122;19.864;2022-10-31T10:17:26;7.90;;;3.97;;
11141;SDS011;5625;50.122;19.864;2022-10-31T10:20:21;8.02;;;4.15;;
11141;SDS011;5625;50.122;19.864;2022-10-31T10:22:57;10.50;;;4.55;;
11141;SDS011;5625;50.122;19.864;2022-10-31T10:25:39;9.43;;;4.35;;
11141;SDS011;5625;50.122;19.864;2022-10-31T10:28:13;9.45;;;4.47;;
11141;SDS011;5625;50.122;19.864;2022-10-31T10:30:48;11.95;;;4.63;;
11141;SDS011;5625;50.122;19.864;2022-10-31T10:33:22;7.00;;;4.63;;
11141;SDS011;5625;50.122;19.864;2022-10-31T10:35:57;8.67;;;4.70;;
11141;SDS011;5625;50.122;19.864;2022-10-31T10:38:28;8.87;;;4.67;;
11141;SDS011;5625;50.122;19.864;2022-10-31T10:41:04;8.40;;;4.93;;
11141;SDS011;5625;50.122;19.864;2022-10-31T10:43:37;6.40;;;4.67;;
11141;SDS011;5625;50.122;19.864;2022-10-31T10:46:13;6.50;;;4.37;;
11141;SDS011;5625;50.122;19.864;2022-10-31T10:49:05;12.80;;;5.10;;
11141;SDS011;5625;50.122;19.864;2022-10-31T10:51:43;9.83;;;4.97;;
11141;SDS011;5625;50.122;19.864;2022-10-31T10:54:42;7.60;;;4.60;;
11141;SDS011;5625;50.122;19.864;2022-10-31T10:57:19;7.13;;;4.57;;
11141;SDS011;5625;50.122;19.864;2022-10-31T11:00:19;10.57;;;5.27;;
11141;SDS011;5625;50.122;19.864;2022-10-31T11:02:49;9.80;;;5.33;;
11141;SDS011;5625;50.122;19.864;2022-10-31T11:05:22;8.83;;;5.43;;
11141;SDS011;5625;50.122;19.864;2022-10-31T11:07:55;9.60;;;5.27;;
11141;SDS011;5625;50.122;19.864;2022-10-31T11:10:23;10.83;;;5.40;;
11141;SDS011;5625;50.122;19.864;2022-10-31T11:13:04;9.33;;;4.70;;
11141;SDS011;5625;50.122;19.864;2022-10-31T11:15:49;15.03;;;5.87;;
11141;SDS011;5625;50.122;19.864;2022-10-31T11:18:22;8.90;;;5.20;;
11141;SDS011;5625;50.122;19.864;2022-10-31T11:20:52;10.17;;;5.00;;
11141;SDS011;5625;50.122;19.864;2022-10-31T11:23:22;13.17;;;5.07;;
11141;SDS011;5625;50.122;19.864;2022-10-31T11:25:52;11.03;;;4.93;;
11141;SDS011;5625;50.122;19.864;2022-10-31T11:28:25;11.60;;;5.40;;
11141;SDS011;5625;50.122;19.864;2022-10-31T11:30:55;7.50;;;4.93;;
11141;SDS011;5625;50.122;19.864;2022-10-31T11:33:27;10.17;;;5.00;;
11141;SDS011;5625;50.122;19.864;2022-10-31T11:35:58;8.70;;;5.00;;
11141;SDS011;5625;50.122;19.864;2022-10-31T11:38:29;9.87;;;5.40;;
11141;SDS011;5625;50.122;19.864;2022-10-31T11:41:03;9.60;;;5.10;;
11141;SDS011;5625;50.122;19.864;2022-10-31T11:43:44;8.93;;;5.10;;
11141;SDS011;5625;50.122;19.864;2022-10-31T11:46:19;11.53;;;5.30;;
11141;SDS011;5625;50.122;19.864;2022-10-31T11:48:52;11.73;;;5.73;;
11141;SDS011;5625;50.122;19.864;2022-10-31T11:51:22;17.97;;;6.07;;
11141;SDS011;5625;50.122;19.864;2022-10-31T11:53:55;10.80;;;4.80;;
11141;SDS011;5625;50.122;19.864;2022-10-31T11:56:37;12.63;;;6.03;;
11141;SDS011;5625;50.122;19.864;2022-10-31T11:59:14;12.00;;;5.63;;
11141;SDS011;5625;50.122;19.864;2022-10-31T12:01:46;11.50;;;5.27;;
11141;SDS011;5625;50.122;19.864;2022-10-31T12:04:16;12.57;;;5.60;;
11141;SDS011;5625;50.122;19.864;2022-10-31T12:06:45;10.57;;;5.43;;
11141;SDS011;5625;50.122;19.864;2022-10-31T12:09:18;10.13;;;5.60;;
11141;SDS011;5625;50.122;19.864;2022-10-31T12:11:56;11.70;;;5.40;;
11141;SDS011;5625;50.122;19.864;2022-10-31T12:14:50;9.30;;;5.43;;
11141;SDS011;5625;50.122;19.864;2022-10-31T12:17:39;13.83;;;6.00;;
11141;SDS011;5625;50.122;19.864;2022-10-31T12:20:16;11.33;;;5.63;;
11141;SDS011;5625;50.122;19.864;2022-10-31T12:22:53;9.60;;;5.33;;
11141;SDS011;5625;50.122;19.864;2022-10-31T12:25:33;10.97;;;6.13;;
11141;SDS011;5625;50.122;19.864;2022-10-31T12:31:18;10.90;;;5.63;;
11141;SDS011;5625;50.122;19.864;2022-10-31T12:34:18;7.93;;;4.87;;
11141;SDS011;5625;50.122;19.864;2022-10-31T12:37:03;7.27;;;4.77;;
11141;SDS011;5625;50.122;19.864;2022-10-31T12:39:41;11.07;;;5.50;;
11141;SDS011;5625;50.122;19.864;2022-10-31T12:42:17;9.60;;;5.37;;
11141;SDS011;5625;50.122;19.864;2022-10-31T12:45:01;9.73;;;5.23;;
11141;SDS011;5625;50.122;19.864;2022-10-31T12:47:53;10.13;;;5.67;;
11141;SDS011;5625;50.122;19.864;2022-10-31T12:50:33;9.33;;;5.53;;
11141;SDS011;5625;50.122;19.864;2022-10-31T12:53:14;14.20;;;6.60;;
11141;SDS011;5625;50.122;19.864;2022-10-31T12:55:58;14.67;;;7.23;;
11141;SDS011;5625;50.122;19.864;2022-10-31T12:58:37;12.77;;;6.90;;
11141;SDS011;5625;50.122;19.864;2022-10-31T13:01:09;15.03;;;7.60;;
11141;SDS011;5625;50.122;19.864;2022-10-31T13:03:44;12.57;;;7.53;;
11141;SDS011;5625;50.122;19.864;2022-10-31T13:06:18;10.90;;;7.53;;
11141;SDS011;5625;50.122;19.864;2022-10-31T13:08:49;9.80;;;5.90;;
11141;SDS011;5625;50.122;19.864;2022-10-31T13:11:21;12.07;;;6.53;;
11141;SDS011;5625;50.122;19.864;2022-10-31T13:13:57;10.57;;;6.40;;
11141;SDS011;5625;50.122;19.864;2022-10-31T13:16:30;11.47;;;6.53;;
11141;SDS011;5625;50.122;19.864;2022-10-31T13:19:05;10.27;;;6.00;;
11141;SDS011;5625;50.122;19.864;2022-10-31T13:21:41;12.47;;;6.63;;
11141;SDS011;5625;50.122;19.864;2022-10-31T13:24:16;12.47;;;6.30;;
11141;SDS011;5625;50.122;19.864;2022-10-31T13:26:47;15.07;;;7.23;;
11141;SDS011;5625;50.122;19.864;2022-10-31T13:29:20;11.27;;;7.20;;
11141;SDS011;5625;50.122;19.864;2022-10-31T13:31:58;14.43;;;7.00;;
11141;SDS011;5625;50.122;19.864;2022-10-31T13:34:30;12.27;;;7.23;;
11141;SDS011;5625;50.122;19.864;2022-10-31T13:37:03;16.03;;;7.53;;
11141;SDS011;5625;50.122;19.864;2022-10-31T13:39:44;14.10;;;7.20;;
11141;SDS011;5625;50.122;19.864;2022-10-31T13:42:19;10.97;;;6.90;;
11141;SDS011;5625;50.122;19.864;2022-10-31T13:44:53;13.07;;;7.23;;
11141;SDS011;5625;50.122;19.864;2022-10-31T13:47:22;11.90;;;7.00;;
11141;SDS011;5625;50.122;19.864;2022-10-31T13:50:02;12.50;;;7.40;;
11141;SDS011;5625;50.122;19.864;2022-10-31T13:52:32;19.67;;;8.30;;
11141;SDS011;5625;50.122;19.864;2022-10-31T13:55:00;14.47;;;7.60;;
11141;SDS011;5625;50.122;19.864;2022-10-31T13:57:30;14.57;;;7.17;;
11141;SDS011;5625;50.122;19.864;2022-10-31T14:00:04;12.47;;;7.00;;
11141;SDS011;5625;50.122;19.864;2022-10-31T14:02:36;10.97;;;6.90;;
11141;SDS011;5625;50.122;19.864;2022-10-31T14:05:14;17.73;;;7.73;;
11141;SDS011;5625;50.122;19.864;2022-10-31T14:07:50;14.97;;;7.33;;
11141;SDS011;5625;50.122;19.864;2022-10-31T14:10:21;13.03;;;7.20;;
11141;SDS011;5625;50.122;19.864;2022-10-31T14:12:54;14.10;;;7.43;;
11141;SDS011;5625;50.122;19.864;2022-10-31T14:15:33;12.63;;;7.20;;
11141;SDS011;5625;50.122;19.864;2022-10-31T14:18:05;15.87;;;8.27;;
11141;SDS011;5625;50.122;19.864;2022-10-31T14:20:48;14.73;;;7.87;;
11141;SDS011;5625;50.122;19.864;2022-10-31T14:26:17;16.60;;;7.80;;
11141;SDS011;5625;50.122;19.864;2022-10-31T14:28:49;15.40;;;8.43;;
11141;SDS011;5625;50.122;19.864;2022-10-31T14:31:26;11.77;;;7.10;;
11141;SDS011;5625;50.122;19.864;2022-10-31T14:34:01;14.33;;;7.53;;
11141;SDS011;5625;50.122;19.864;2022-10-31T14:36:36;13.37;;;7.53;;
11141;SDS011;5625;50.122;19.864;2022-10-31T14:39:11;16.13;;;8.67;;
11141;SDS011;5625;50.122;19.864;2022-10-31T14:41:48;19.63;;;8.53;;
11141;SDS011;5625;50.122;19.864;2022-10-31T14:47:25;14.90;;;8.40;;
11141;SDS011;5625;50.122;19.864;2022-10-31T14:50:23;15.60;;;8.03;;
11141;SDS011;5625;50.122;19.864;2022-10-31T14:53:01;12.50;;;7.80;;
11141;SDS011;5625;50.122;19.864;2022-10-31T14:55:31;14.23;;;8.53;;
11141;SDS011;5625;50.122;19.864;2022-10-31T14:58:00;18.23;;;8.80;;
11141;SDS011;5625;50.122;19.864;2022-10-31T15:00:32;18.83;;;9.17;;
11141;SDS011;5625;50.122;19.864;2022-10-31T15:03:04;11.50;;;7.70;;
11141;SDS011;5625;50.122;19.864;2022-10-31T15:05:42;16.87;;;8.33;;
11141;SDS011;5625;50.122;19.864;2022-10-31T15:08:27;17.57;;;8.57;;
11141;SDS011;5625;50.122;19.864;2022-10-31T15:11:02;14.37;;;8.60;;